CheckWX is a tool to help pilots better visualize weather data.  It is not intended as a substitute for an official pre-flight weather briefing.

16:03:07 UTC

LEVS TAF
Madrid / Cuatro Vientos Airport
Madrid Cuatro Vientos, Spain
TAF LEVS 181400Z 1815/1824 05008KT CAVOK

Mar-18@
15:00 UTC

Mar-18 @ 15:00 UTC

Mar-19@
00:00 UTC

Mar-19 @ 00:00 UTC

TAF LEVS 181400Z 1815/1824 05008KT CAVOK
Wind
  • 050° at 8 KTS
Conditions
No significant weather
Cloud Levels
  • No significant clouds